Aeroporto :
LOGIN :

Iscrizione | Disclaimer

   EN    FR    IT 

 










Sommario :    VFR   VFR Marginale   IFR   IFR Intensivo   IFR Molto Intensivo
Visibilità : 
Base nubi : 
>= 8 km
>= 3000ft
5 / 8 km
1000 / 3000 ft
1500m / 5 km
500 / 1000 ft
800 / 1500m
200 / 500 ft
< 800m
< 200 ft
Simboli :   Temporali  Nebbia  Neve Forte  Precipitazioni Forti  Vento > 20 kt
SIGMETs :   Varie  Temporali  Ghiacco  Turbolenza  Onda orograficha  Ceneri Vulcaniche






- Altitudine del aeroporto : 485 ft
- Codice IATA : QSA


LELL - Sabadell

ULTIMO METAR :
  • 122030Z AUTO 30001KT CAVOK 10/05 Q1006

METARs OBSOLETI :
  • 122000Z AUTO 00000KT CAVOK 11/04 Q1006
  • 121930Z AUTO 02004KT 330V060 CAVOK 13/05 Q1006
  • 121900Z AUTO 27006KT 230V310 9999 NCD 13/05 Q1006
  • 121830Z AUTO 24003KT 210V340 9999 NCD 12/06 Q1006
  • 121800Z AUTO 20003KT 170V240 9999 NCD 14/05 Q1006

TAF TAF LELL
Valido dal 12 a 15 ore il 13 a 15 ore UTC


121400Z 1215/1315 26010KT 9999 FEW040 TX14/1313Z TN05/1306Z
BECMG 1217/1219 VRB04KT
TEMPO 1223/1305 30007KT
PROB40
TEMPO 1308/1313 4000 RA BKN014 BKN030



MetMap, La meteo Aeronautica in un colpo d'occhio ! - Copyright ORBIFLY Dicembre 2007 - Disclaimer

ORBIFLY MET'MAP TEAM :

Programmazione e sviluppo : Alexandra Zaïnal
Concezione e sviluppo : Baudouin d'Aumeries
Co-Programmazione e sviluppo : Marc-Olivier Méhu
Supporto tecnico e logistico : Manuel Goepfert
Aiuto per la traduzione : Arnaldo La Scala

Contatto : metmap@orbifly.com




FONTI E CREDITI :

   NOAA